createdAt,value
2023-02-19T00:00:11.195Z,10.77
2023-02-19T00:00:41.676Z,10.77
2023-02-19T00:01:13.702Z,10.77
2023-02-19T00:01:45.753Z,10.77
2023-02-19T00:02:17.523Z,10.77
2023-02-19T00:02:49.677Z,10.77
2023-02-19T00:03:21.913Z,10.77
2023-02-19T00:03:53.588Z,10.77
2023-02-19T00:04:25.507Z,10.77
2023-02-19T00:04:57.573Z,10.77
2023-02-19T00:05:29.712Z,10.77
2023-02-19T00:06:02.050Z,10.77
2023-02-19T00:06:33.453Z,10.77
2023-02-19T00:07:05.604Z,10.77
2023-02-19T00:07:21.650Z,10.77
2023-02-19T00:07:53.274Z,10.77
2023-02-19T00:08:37.418Z,10.77
2023-02-19T00:09:09.355Z,10.77
2023-02-19T00:09:41.320Z,10.77
2023-02-19T00:10:13.630Z,10.77
2023-02-19T00:10:45.357Z,10.88
2023-02-19T00:11:17.311Z,10.88
2023-02-19T00:11:49.365Z,10.88
2023-02-19T00:12:21.369Z,10.88
2023-02-19T00:12:53.283Z,10.88
2023-02-19T00:13:25.130Z,10.88
2023-02-19T00:13:57.146Z,10.88
2023-02-19T00:14:29.145Z,10.77
2023-02-19T00:15:03.823Z,10.77
2023-02-19T00:15:33.158Z,10.77
2023-02-19T00:16:05.315Z,10.77
2023-02-19T00:16:21.336Z,10.77
2023-02-19T00:17:05.516Z,10.77
2023-02-19T00:17:37.149Z,10.77
2023-02-19T00:18:08.902Z,10.88
2023-02-19T00:18:41.091Z,10.88
2023-02-19T00:19:12.923Z,10.88
2023-02-19T00:19:44.871Z,10.88
2023-02-19T00:20:18.909Z,10.88
2023-02-19T00:20:48.974Z,10.88
2023-02-19T00:21:20.836Z,10.88
2023-02-19T00:21:52.977Z,10.88
2023-02-19T00:22:24.748Z,10.88
2023-02-19T00:22:56.747Z,10.88
2023-02-19T00:23:28.922Z,10.88
2023-02-19T00:24:00.860Z,10.88
2023-02-19T00:24:34.533Z,10.88
2023-02-19T00:25:05.487Z,10.88
2023-02-19T00:25:20.813Z,10.88
2023-02-19T00:25:52.941Z,10.88
2023-02-19T00:26:36.863Z,10.88
2023-02-19T00:27:08.512Z,10.88
2023-02-19T00:27:40.598Z,10.88
2023-02-19T00:28:12.723Z,10.77
2023-02-19T00:28:44.619Z,10.77
2023-02-19T00:29:16.519Z,10.77
2023-02-19T00:29:48.534Z,10.88
2023-02-19T00:30:06.716Z,10.88
2023-02-19T00:30:48.620Z,10.88
2023-02-19T00:31:20.749Z,10.88
2023-02-19T00:31:52.722Z,10.88
2023-02-19T00:32:24.398Z,10.88
2023-02-19T00:32:56.482Z,10.88
2023-02-19T00:33:28.522Z,10.88
2023-02-19T00:34:00.282Z,10.88
2023-02-19T00:34:32.346Z,10.88
2023-02-19T00:35:05.044Z,10.77
2023-02-19T00:35:36.428Z,10.77
2023-02-19T00:36:08.289Z,10.77
2023-02-19T00:36:40.168Z,10.88
2023-02-19T00:37:12.312Z,10.88
2023-02-19T00:37:44.146Z,10.88
2023-02-19T00:38:16.083Z,10.88
2023-02-19T00:38:48.099Z,10.88
2023-02-19T00:39:20.256Z,10.77
2023-02-19T00:39:52.440Z,10.77
2023-02-19T00:40:24.178Z,10.77
2023-02-19T00:40:56.147Z,10.77
2023-02-19T00:41:27.990Z,10.77
2023-02-19T00:42:00.185Z,10.77
2023-02-19T00:42:32.195Z,10.88
2023-02-19T00:43:04.426Z,10.88
2023-02-19T00:43:35.968Z,10.88
2023-02-19T00:44:08.033Z,10.88
2023-02-19T00:44:39.948Z,10.88
2023-02-19T00:45:13.038Z,10.88
2023-02-19T00:45:43.879Z,10.88
2023-02-19T00:46:16.038Z,10.88
2023-02-19T00:46:47.730Z,10.88
2023-02-19T00:47:04.333Z,10.88
2023-02-19T00:47:47.684Z,10.88
2023-02-19T00:48:19.893Z,10.77
2023-02-19T00:48:52.046Z,10.77
2023-02-19T00:49:23.573Z,10.77
2023-02-19T00:49:55.823Z,10.88
2023-02-19T00:50:27.995Z,10.77
2023-02-19T00:50:59.683Z,10.77
2023-02-19T00:51:31.968Z,10.77
2023-02-19T00:52:04.256Z,10.88
2023-02-19T00:52:35.663Z,10.88
2023-02-19T00:53:07.669Z,10.88
2023-02-19T00:53:39.557Z,10.88
2023-02-19T00:54:11.786Z,10.88
2023-02-19T00:54:43.468Z,10.88
2023-02-19T00:55:15.844Z,10.88
2023-02-19T00:55:47.423Z,10.88
2023-02-19T00:56:19.444Z,10.88
2023-02-19T00:56:35.692Z,10.88
2023-02-19T00:57:19.453Z,10.88
2023-02-19T00:57:51.609Z,10.88
2023-02-19T00:58:23.405Z,10.88
2023-02-19T00:58:55.308Z,10.88
2023-02-19T00:59:27.248Z,10.88
2023-02-19T00:59:59.307Z,10.88
2023-02-19T01:00:31.622Z,10.88
2023-02-19T01:01:03.687Z,10.77
2023-02-19T01:01:35.277Z,10.77
2023-02-19T01:02:07.227Z,10.77
2023-02-19T01:02:39.093Z,10.77
2023-02-19T01:03:11.292Z,10.77
2023-02-19T01:03:43.199Z,10.77
2023-02-19T01:04:15.018Z,10.77
2023-02-19T01:04:47.118Z,10.77
2023-02-19T01:05:04.372Z,10.77
2023-02-19T01:05:46.974Z,10.77
2023-02-19T01:06:19.067Z,10.77
2023-02-19T01:06:51.164Z,10.77
2023-02-19T01:07:22.960Z,10.77
2023-02-19T01:07:54.830Z,10.77
2023-02-19T01:08:26.837Z,10.77
2023-02-19T01:08:58.929Z,10.72
2023-02-19T01:09:31.087Z,10.72
2023-02-19T01:10:03.599Z,10.72
2023-02-19T01:10:34.947Z,10.72
2023-02-19T01:11:06.906Z,10.72
2023-02-19T01:11:38.559Z,10.72
2023-02-19T01:12:11.091Z,10.72
2023-02-19T01:12:42.752Z,10.72
2023-02-19T01:13:14.809Z,10.72
2023-02-19T01:13:46.651Z,10.72
2023-02-19T01:14:03.703Z,10.72
2023-02-19T01:14:34.566Z,10.72
2023-02-19T01:14:50.873Z,10.72
2023-02-19T01:15:23.165Z,10.72
2023-02-19T01:15:54.576Z,10.72
2023-02-19T01:16:26.665Z,10.72
2023-02-19T01:16:58.520Z,10.72
2023-02-19T01:17:30.592Z,10.72
2023-02-19T01:18:03.076Z,10.72
2023-02-19T01:18:34.470Z,10.72
2023-02-19T01:19:06.482Z,10.72
2023-02-19T01:19:38.537Z,10.72
2023-02-19T01:20:10.784Z,10.72
2023-02-19T01:20:42.373Z,10.72
2023-02-19T01:21:14.390Z,10.72
2023-02-19T01:21:46.327Z,10.72
2023-02-19T01:22:18.171Z,10.72
2023-02-19T01:22:34.374Z,10.72
2023-02-19T01:23:06.346Z,10.72
2023-02-19T01:23:50.403Z,10.72
2023-02-19T01:24:22.441Z,10.72
2023-02-19T01:24:54.120Z,10.72
2023-02-19T01:25:26.512Z,10.72
2023-02-19T01:25:58.154Z,10.72
2023-02-19T01:26:30.274Z,10.72
2023-02-19T01:27:02.807Z,10.72
2023-02-19T01:27:18.033Z,10.72
2023-02-19T01:28:02.621Z,10.72
2023-02-19T01:28:34.109Z,10.72
2023-02-19T01:29:06.064Z,10.72
2023-02-19T01:29:37.875Z,10.72
2023-02-19T01:30:11.457Z,10.72
2023-02-19T01:30:42.173Z,10.72
2023-02-19T01:31:14.457Z,10.61
2023-02-19T01:31:45.966Z,10.61
2023-02-19T01:32:17.813Z,10.61
2023-02-19T01:32:34.006Z,10.61
2023-02-19T01:33:17.882Z,10.61
2023-02-19T01:33:49.926Z,10.61
2023-02-19T01:34:21.787Z,10.61
2023-02-19T01:34:53.742Z,10.61
2023-02-19T01:35:26.067Z,10.61
2023-02-19T01:35:57.836Z,10.61
2023-02-19T01:36:29.713Z,10.61
2023-02-19T01:37:02.445Z,10.61
2023-02-19T01:37:17.741Z,10.61
2023-02-19T01:37:49.637Z,10.61
2023-02-19T01:38:33.716Z,10.61
2023-02-19T01:39:06.011Z,10.61
2023-02-19T01:39:37.520Z,10.61
2023-02-19T01:40:09.757Z,10.61
2023-02-19T01:40:42.024Z,10.61
2023-02-19T01:41:13.435Z,10.61
2023-02-19T01:41:45.451Z,10.61
2023-02-19T01:42:17.981Z,10.61
2023-02-19T01:42:49.480Z,10.61
2023-02-19T01:43:21.500Z,10.61
2023-02-19T01:43:53.397Z,10.61
2023-02-19T01:44:25.488Z,10.61
2023-02-19T01:44:57.377Z,10.61
2023-02-19T01:45:29.622Z,10.50
2023-02-19T01:46:02.138Z,10.50
2023-02-19T01:46:33.385Z,10.50
2023-02-19T01:47:05.827Z,10.50
2023-02-19T01:47:37.319Z,10.50
2023-02-19T01:48:09.179Z,10.38
2023-02-19T01:48:41.593Z,10.38
2023-02-19T01:49:13.358Z,10.38
2023-02-19T01:49:45.044Z,10.38
2023-02-19T01:50:17.346Z,10.38
2023-02-19T01:50:49.082Z,10.38
2023-02-19T01:51:21.353Z,10.38
2023-02-19T01:51:53.084Z,10.38
2023-02-19T01:52:25.440Z,10.38
2023-02-19T01:52:57.150Z,10.27
2023-02-19T01:53:29.087Z,10.27
2023-02-19T01:54:01.234Z,10.27
2023-02-19T01:54:17.087Z,10.27
2023-02-19T01:54:48.772Z,10.27
2023-02-19T01:55:33.748Z,10.27
2023-02-19T01:56:05.631Z,10.27
2023-02-19T01:56:36.877Z,10.27
2023-02-19T01:57:08.848Z,10.27
2023-02-19T01:57:41.284Z,10.27
2023-02-19T01:58:13.158Z,10.27
2023-02-19T01:58:44.801Z,10.27
2023-02-19T01:59:01.412Z,10.27
2023-02-19T01:59:44.743Z,10.27
2023-02-19T02:00:17.709Z,10.38
2023-02-19T02:00:48.734Z,10.38
2023-02-19T02:01:20.862Z,10.38
2023-02-19T02:01:52.884Z,10.38
2023-02-19T02:02:24.639Z,10.38
2023-02-19T02:02:56.725Z,10.38
2023-02-19T02:03:28.620Z,10.27
2023-02-19T02:04:00.575Z,10.27
2023-02-19T02:04:32.950Z,10.27
2023-02-19T02:05:05.137Z,10.27
2023-02-19T02:05:36.404Z,10.27
2023-02-19T02:06:08.498Z,10.27
2023-02-19T02:06:40.493Z,10.27
2023-02-19T02:07:12.611Z,10.27
2023-02-19T02:07:44.404Z,10.27
2023-02-19T02:08:16.430Z,10.27
2023-02-19T02:08:32.808Z,10.27
2023-02-19T02:09:16.413Z,10.27
2023-02-19T02:09:48.325Z,10.27
2023-02-19T02:10:20.618Z,10.27
2023-02-19T02:10:52.518Z,10.27
2023-02-19T02:11:24.334Z,10.27
2023-02-19T02:11:56.512Z,10.27
2023-02-19T02:12:28.057Z,10.27
2023-02-19T02:13:00.292Z,10.27
2023-02-19T02:13:32.794Z,10.27
2023-02-19T02:14:05.334Z,10.27
2023-02-19T02:14:36.172Z,10.27
2023-02-19T02:15:09.118Z,10.27
2023-02-19T02:15:40.097Z,10.27
2023-02-19T02:16:12.645Z,10.27
2023-02-19T02:16:43.948Z,10.27
2023-02-19T02:17:00.240Z,10.27
2023-02-19T02:17:43.969Z,10.27
2023-02-19T02:18:00.232Z,10.27
2023-02-19T02:18:44.061Z,10.27
2023-02-19T02:19:16.088Z,10.27
2023-02-19T02:19:47.825Z,10.27
2023-02-19T02:20:20.139Z,10.27
2023-02-19T02:20:52.026Z,10.27
2023-02-19T02:21:23.944Z,10.27
2023-02-19T02:21:55.812Z,10.27
2023-02-19T02:22:27.705Z,10.27
2023-02-19T02:22:59.931Z,10.27
2023-02-19T02:23:32.448Z,10.27
2023-02-19T02:24:04.210Z,10.27
2023-02-19T02:24:35.746Z,10.27
2023-02-19T02:25:08.028Z,10.27
2023-02-19T02:25:39.773Z,10.22
2023-02-19T02:26:12.095Z,10.22
2023-02-19T02:26:43.604Z,10.22
2023-02-19T02:27:15.663Z,10.22
2023-02-19T02:27:47.688Z,10.22
2023-02-19T02:28:19.497Z,10.22
2023-02-19T02:28:51.699Z,10.22
2023-02-19T02:29:23.535Z,10.22
2023-02-19T02:29:55.660Z,10.22
2023-02-19T02:30:27.876Z,10.22
2023-02-19T02:30:59.511Z,10.22
2023-02-19T02:31:31.942Z,10.22
2023-02-19T02:32:04.507Z,10.22
2023-02-19T02:32:35.353Z,10.22
2023-02-19T02:33:07.304Z,10.22
2023-02-19T02:33:39.346Z,10.22
2023-02-19T02:34:11.773Z,10.22
2023-02-19T02:34:43.315Z,10.22
2023-02-19T02:35:15.571Z,10.22
2023-02-19T02:35:31.605Z,10.22
2023-02-19T02:36:03.841Z,10.22
2023-02-19T02:36:47.406Z,10.11
2023-02-19T02:37:19.026Z,10.11
2023-02-19T02:37:51.188Z,10.11
2023-02-19T02:38:23.161Z,10.11
2023-02-19T02:38:55.135Z,10.11
2023-02-19T02:39:27.046Z,10.11
2023-02-19T02:39:59.052Z,10.11
2023-02-19T02:40:31.545Z,10.11
2023-02-19T02:41:03.842Z,10.11
2023-02-19T02:41:34.874Z,10.11
2023-02-19T02:42:06.999Z,10.11
2023-02-19T02:42:38.986Z,10.11
2023-02-19T02:43:10.961Z,10.11
2023-02-19T02:43:43.128Z,10.11
2023-02-19T02:43:59.109Z,10.11
2023-02-19T02:44:30.823Z,10.11
2023-02-19T02:44:46.891Z,10.22
2023-02-19T02:45:19.179Z,10.22
2023-02-19T02:45:50.980Z,10.22
2023-02-19T02:46:22.814Z,10.22
2023-02-19T02:46:54.845Z,10.22
2023-02-19T02:47:26.870Z,10.22
2023-02-19T02:47:58.610Z,10.22
2023-02-19T02:48:30.905Z,10.22
2023-02-19T02:49:03.328Z,10.22
2023-02-19T02:49:34.630Z,10.22
2023-02-19T02:50:06.918Z,10.22
2023-02-19T02:50:38.632Z,10.22
2023-02-19T02:51:11.161Z,10.22
2023-02-19T02:51:42.900Z,10.22
2023-02-19T02:52:14.394Z,10.22
2023-02-19T02:52:30.622Z,10.22
2023-02-19T02:53:03.403Z,10.22
2023-02-19T02:53:46.503Z,10.22
2023-02-19T02:54:18.585Z,10.11
2023-02-19T02:54:50.416Z,10.11
2023-02-19T02:55:22.846Z,10.11
2023-02-19T02:55:54.417Z,10.11
2023-02-19T02:56:26.562Z,10.11
2023-02-19T02:56:58.207Z,10.11
2023-02-19T02:57:14.436Z,10.11
2023-02-19T02:57:58.263Z,10.11
2023-02-19T02:58:14.347Z,10.11
2023-02-19T02:58:58.282Z,10.11
2023-02-19T02:59:30.312Z,10.11
2023-02-19T03:00:06.059Z,10.11
2023-02-19T03:00:34.172Z,10.11
2023-02-19T03:01:06.407Z,10.11
2023-02-19T03:01:38.187Z,10.11
2023-02-19T03:02:10.111Z,10.11
2023-02-19T03:02:42.604Z,10.11
2023-02-19T03:02:58.187Z,10.11
2023-02-19T03:03:30.175Z,10.11
2023-02-19T03:03:46.120Z,10.11
2023-02-19T03:04:17.933Z,10.11
2023-02-19T03:04:49.947Z,10.11
2023-02-19T03:05:22.558Z,10.11
2023-02-19T03:05:54.134Z,10.11
2023-02-19T03:06:25.814Z,10.00
2023-02-19T03:06:57.945Z,10.00
2023-02-19T03:07:14.033Z,10.00
2023-02-19T03:07:45.946Z,10.00
2023-02-19T03:08:30.027Z,10.11
2023-02-19T03:09:02.558Z,10.11
2023-02-19T03:09:33.760Z,10.11
2023-02-19T03:10:06.212Z,10.11
2023-02-19T03:10:37.893Z,10.00
2023-02-19T03:11:09.909Z,10.00
2023-02-19T03:11:42.211Z,10.00
2023-02-19T03:11:57.902Z,10.00
2023-02-19T03:12:42.240Z,10.00
2023-02-19T03:13:13.752Z,10.00
2023-02-19T03:13:45.668Z,10.00
2023-02-19T03:14:17.665Z,10.00
2023-02-19T03:14:49.589Z,10.00
2023-02-19T03:15:22.408Z,10.00
2023-02-19T03:15:53.526Z,10.00
2023-02-19T03:16:25.596Z,10.00
2023-02-19T03:16:57.649Z,10.00
2023-02-19T03:17:29.620Z,10.00
2023-02-19T03:18:01.664Z,10.00
2023-02-19T03:18:33.420Z,10.00
2023-02-19T03:19:05.636Z,10.00
2023-02-19T03:19:37.453Z,10.00
2023-02-19T03:20:09.559Z,10.00
2023-02-19T03:20:41.821Z,10.00
2023-02-19T03:20:57.842Z,10.00
2023-02-19T03:21:29.285Z,10.00
2023-02-19T03:21:45.417Z,10.00
2023-02-19T03:22:17.184Z,10.00
2023-02-19T03:22:49.177Z,10.00
2023-02-19T03:23:21.608Z,10.00
2023-02-19T03:23:53.368Z,9.88
2023-02-19T03:24:25.204Z,9.88
2023-02-19T03:24:57.251Z,9.88
2023-02-19T03:25:13.522Z,9.88
2023-02-19T03:25:45.106Z,9.88
2023-02-19T03:26:29.276Z,9.88
2023-02-19T03:27:01.196Z,9.88
2023-02-19T03:27:33.207Z,9.88
2023-02-19T03:28:05.348Z,9.88
2023-02-19T03:28:37.166Z,9.88
2023-02-19T03:29:08.988Z,9.88
2023-02-19T03:29:41.398Z,9.88
2023-02-19T03:29:57.232Z,9.77
2023-02-19T03:30:41.878Z,9.77
2023-02-19T03:31:14.519Z,9.77
2023-02-19T03:31:45.967Z,9.77
2023-02-19T03:32:17.502Z,9.77
2023-02-19T03:32:49.326Z,9.72
2023-02-19T03:33:21.054Z,9.72
2023-02-19T03:33:52.737Z,9.72
2023-02-19T03:34:26.145Z,9.72
2023-02-19T03:34:56.913Z,9.72
2023-02-19T03:35:29.041Z,9.72
2023-02-19T03:36:00.841Z,9.72
2023-02-19T03:36:32.773Z,9.72
2023-02-19T03:37:04.927Z,9.61
2023-02-19T03:37:36.965Z,9.61
2023-02-19T03:38:08.461Z,9.61
2023-02-19T03:38:40.657Z,9.61
2023-02-19T03:39:13.306Z,9.61
2023-02-19T03:39:44.667Z,9.61
2023-02-19T03:40:16.827Z,9.50
2023-02-19T03:40:48.559Z,9.50
2023-02-19T03:41:20.618Z,9.50
2023-02-19T03:41:52.693Z,9.50
2023-02-19T03:42:24.441Z,9.50
2023-02-19T03:42:56.491Z,9.50
2023-02-19T03:43:28.464Z,9.50
2023-02-19T03:44:00.383Z,9.50
2023-02-19T03:44:32.550Z,9.50
2023-02-19T03:45:06.790Z,9.50
2023-02-19T03:45:36.602Z,9.50
2023-02-19T03:46:08.118Z,9.50
2023-02-19T03:46:40.209Z,9.50
2023-02-19T03:46:56.502Z,9.50
2023-02-19T03:47:40.362Z,9.38
2023-02-19T03:48:12.827Z,9.38
2023-02-19T03:48:44.029Z,9.38
2023-02-19T03:49:16.249Z,9.38
2023-02-19T03:49:49.105Z,9.38
2023-02-19T03:50:20.623Z,9.38
2023-02-19T03:50:52.266Z,9.38
2023-02-19T03:51:23.973Z,9.38
2023-02-19T03:51:56.005Z,9.38
2023-02-19T03:52:28.108Z,9.50
2023-02-19T03:52:59.945Z,9.50
2023-02-19T03:53:32.075Z,9.50
2023-02-19T03:54:04.469Z,9.50
2023-02-19T03:54:36.126Z,9.38
2023-02-19T03:55:08.058Z,9.38
2023-02-19T03:55:39.896Z,9.38
2023-02-19T03:56:12.275Z,9.38
2023-02-19T03:56:43.831Z,9.38
2023-02-19T03:57:15.799Z,9.38
2023-02-19T03:57:47.880Z,9.38
2023-02-19T03:58:19.758Z,9.38
2023-02-19T03:58:52.180Z,9.38
2023-02-19T03:59:23.645Z,9.38
2023-02-19T03:59:55.722Z,9.27
2023-02-19T04:00:28.230Z,9.27
2023-02-19T04:00:59.842Z,9.27
2023-02-19T04:01:31.699Z,9.27
2023-02-19T04:02:04.260Z,9.27
2023-02-19T04:02:35.783Z,9.27
2023-02-19T04:03:07.647Z,9.27
2023-02-19T04:03:39.430Z,9.27
2023-02-19T04:03:55.746Z,9.27
2023-02-19T04:04:39.623Z,9.27
2023-02-19T04:05:14.097Z,9.27
2023-02-19T04:05:43.531Z,9.27
2023-02-19T04:06:15.457Z,9.27
2023-02-19T04:06:47.423Z,9.27
2023-02-19T04:07:19.411Z,9.22
2023-02-19T04:07:52.103Z,9.22
2023-02-19T04:08:23.343Z,9.22
2023-02-19T04:08:55.512Z,9.22
2023-02-19T04:09:27.456Z,9.22
2023-02-19T04:09:59.305Z,9.22
2023-02-19T04:10:31.655Z,9.22
2023-02-19T04:11:04.009Z,9.22
2023-02-19T04:11:35.168Z,9.22
2023-02-19T04:12:07.320Z,9.22
2023-02-19T04:12:39.172Z,9.22
2023-02-19T04:12:55.374Z,9.22
2023-02-19T04:13:27.258Z,9.22
2023-02-19T04:13:43.344Z,9.22
2023-02-19T04:14:15.300Z,9.22
2023-02-19T04:14:47.018Z,9.27
2023-02-19T04:15:19.500Z,9.27
2023-02-19T04:15:51.245Z,9.27
2023-02-19T04:16:23.297Z,9.27
2023-02-19T04:16:55.046Z,9.27
2023-02-19T04:17:11.132Z,9.27
2023-02-19T04:17:43.364Z,9.27
2023-02-19T04:18:27.047Z,9.27
2023-02-19T04:18:58.925Z,9.27
2023-02-19T04:19:30.986Z,9.27
2023-02-19T04:20:03.968Z,9.27
2023-02-19T04:20:34.848Z,9.27
2023-02-19T04:21:07.070Z,9.27
2023-02-19T04:21:38.707Z,9.27
2023-02-19T04:21:55.039Z,9.27
2023-02-19T04:22:38.673Z,9.27
2023-02-19T04:23:10.850Z,9.27
2023-02-19T04:23:42.689Z,9.27
2023-02-19T04:24:14.663Z,9.27
2023-02-19T04:24:46.675Z,9.27
2023-02-19T04:25:18.970Z,9.27
2023-02-19T04:25:51.028Z,9.27
2023-02-19T04:26:23.041Z,9.27
2023-02-19T04:26:54.592Z,9.27
2023-02-19T04:27:26.582Z,9.27
2023-02-19T04:27:58.613Z,9.27
2023-02-19T04:28:30.516Z,9.27
2023-02-19T04:29:03.184Z,9.27
2023-02-19T04:29:34.465Z,9.27
2023-02-19T04:30:07.840Z,9.27
2023-02-19T04:30:38.396Z,9.27
2023-02-19T04:30:55.011Z,9.27
2023-02-19T04:31:26.479Z,9.27
2023-02-19T04:31:42.662Z,9.27
2023-02-19T04:32:14.360Z,9.27
2023-02-19T04:32:46.381Z,9.27
2023-02-19T04:33:18.293Z,9.27
2023-02-19T04:33:50.293Z,9.27
2023-02-19T04:34:22.749Z,9.27
2023-02-19T04:34:54.469Z,9.27
2023-02-19T04:35:10.578Z,9.27
2023-02-19T04:35:42.614Z,9.27
2023-02-19T04:36:26.199Z,9.27
2023-02-19T04:36:58.269Z,9.27
2023-02-19T04:37:30.132Z,9.27
2023-02-19T04:38:03.026Z,9.27
2023-02-19T04:38:34.243Z,9.27
2023-02-19T04:39:06.236Z,9.27
2023-02-19T04:39:38.068Z,9.27
2023-02-19T04:40:10.367Z,9.27
2023-02-19T04:40:42.281Z,9.27
2023-02-19T04:41:14.067Z,9.27
2023-02-19T04:41:45.939Z,9.27
2023-02-19T04:42:17.828Z,9.27
2023-02-19T04:42:49.933Z,9.27
2023-02-19T04:43:22.523Z,9.27
2023-02-19T04:43:53.825Z,9.27
2023-02-19T04:44:10.021Z,9.27
2023-02-19T04:44:53.925Z,9.27
2023-02-19T04:45:26.323Z,9.27
2023-02-19T04:45:57.969Z,9.27
2023-02-19T04:46:29.760Z,9.27
2023-02-19T04:47:02.506Z,9.22
2023-02-19T04:47:33.766Z,9.22
2023-02-19T04:48:05.826Z,9.22
2023-02-19T04:48:37.717Z,9.22
2023-02-19T04:49:09.762Z,9.22
2023-02-19T04:49:41.773Z,9.22
2023-02-19T04:50:14.003Z,9.22
2023-02-19T04:50:45.705Z,9.22
2023-02-19T04:51:17.456Z,9.22
2023-02-19T04:51:49.673Z,9.22
2023-02-19T04:52:22.116Z,9.22
2023-02-19T04:52:53.427Z,9.22
2023-02-19T04:53:25.571Z,9.22
2023-02-19T04:53:57.564Z,9.22
2023-02-19T04:54:29.390Z,9.22
2023-02-19T04:55:02.378Z,9.22
2023-02-19T04:55:33.350Z,9.22
2023-02-19T04:56:05.553Z,9.22
2023-02-19T04:56:37.448Z,9.22
2023-02-19T04:57:09.280Z,9.22
2023-02-19T04:57:25.519Z,9.22
2023-02-19T04:57:57.477Z,9.22
2023-02-19T04:58:41.541Z,9.22
2023-02-19T04:59:13.476Z,9.22
2023-02-19T04:59:45.160Z,9.22
2023-02-19T05:00:17.974Z,9.22
2023-02-19T05:00:49.271Z,9.22
2023-02-19T05:01:21.656Z,9.22
2023-02-19T05:01:53.279Z,9.22
2023-02-19T05:02:09.264Z,9.22
2023-02-19T05:02:53.373Z,9.22
2023-02-19T05:03:25.238Z,9.22
2023-02-19T05:03:56.938Z,9.22
2023-02-19T05:04:29.148Z,9.22
2023-02-19T05:05:01.939Z,9.22
2023-02-19T05:05:33.286Z,9.22
2023-02-19T05:06:05.266Z,9.22
2023-02-19T05:06:36.996Z,9.22
2023-02-19T05:06:53.341Z,9.22
2023-02-19T05:07:24.910Z,9.22
2023-02-19T05:07:41.357Z,9.22
2023-02-19T05:08:13.256Z,9.22
2023-02-19T05:08:44.764Z,9.22
2023-02-19T05:09:16.921Z,9.22
2023-02-19T05:09:48.813Z,9.22
2023-02-19T05:10:21.464Z,9.22
2023-02-19T05:10:53.147Z,9.22
2023-02-19T05:11:09.338Z,9.22
2023-02-19T05:11:40.818Z,9.22
2023-02-19T05:12:24.696Z,9.22
2023-02-19T05:12:58.013Z,9.22
2023-02-19T05:13:28.662Z,9.22
2023-02-19T05:14:00.641Z,9.22
2023-02-19T05:14:32.803Z,9.22
2023-02-19T05:15:06.756Z,9.22
2023-02-19T05:15:36.672Z,9.22
2023-02-19T05:15:53.473Z,9.22
2023-02-19T05:16:36.735Z,9.22
2023-02-19T05:17:08.583Z,9.27
2023-02-19T05:17:40.629Z,9.27
2023-02-19T05:18:12.702Z,9.27
2023-02-19T05:18:44.417Z,9.27
2023-02-19T05:19:16.545Z,9.27
2023-02-19T05:19:48.450Z,9.27
2023-02-19T05:20:20.505Z,9.27
2023-02-19T05:20:52.803Z,9.27
2023-02-19T05:21:24.474Z,9.27
2023-02-19T05:21:56.376Z,9.22
2023-02-19T05:22:28.285Z,9.22
2023-02-19T05:23:00.257Z,9.22
2023-02-19T05:23:32.436Z,9.22
2023-02-19T05:24:04.681Z,9.22
2023-02-19T05:24:36.092Z,9.22
2023-02-19T05:24:52.599Z,9.22
2023-02-19T05:25:24.417Z,9.22
2023-02-19T05:25:40.289Z,9.22
2023-02-19T05:26:12.320Z,9.22
2023-02-19T05:26:45.436Z,9.22
2023-02-19T05:27:16.073Z,9.22
2023-02-19T05:27:48.038Z,9.22
2023-02-19T05:28:20.173Z,9.22
2023-02-19T05:28:52.244Z,9.22
2023-02-19T05:29:08.108Z,9.22
2023-02-19T05:29:39.941Z,9.22
2023-02-19T05:30:24.432Z,9.22
2023-02-19T05:30:56.271Z,9.22
2023-02-19T05:31:27.990Z,9.22
2023-02-19T05:31:59.840Z,9.22
2023-02-19T05:32:32.220Z,9.22
2023-02-19T05:33:04.379Z,9.22
2023-02-19T05:33:35.760Z,9.22
2023-02-19T05:33:52.192Z,9.22
2023-02-19T05:34:35.746Z,9.22
2023-02-19T05:35:08.083Z,9.22
2023-02-19T05:35:39.853Z,9.22
2023-02-19T05:36:11.834Z,9.22
2023-02-19T05:36:43.714Z,9.22
2023-02-19T05:37:15.746Z,9.22
2023-02-19T05:37:47.677Z,9.22
2023-02-19T05:38:19.578Z,9.22
2023-02-19T05:38:52.102Z,9.27
2023-02-19T05:39:23.602Z,9.27
2023-02-19T05:39:55.652Z,9.27
2023-02-19T05:40:27.714Z,9.27
2023-02-19T05:40:59.502Z,9.27
2023-02-19T05:41:31.887Z,9.27
2023-02-19T05:42:04.049Z,9.27
2023-02-19T05:42:35.440Z,9.27
2023-02-19T05:42:51.849Z,9.27
2023-02-19T05:43:23.485Z,9.27
2023-02-19T05:43:39.473Z,9.27
2023-02-19T05:44:11.767Z,9.27
2023-02-19T05:44:43.656Z,9.27
2023-02-19T05:45:16.438Z,9.27
2023-02-19T05:45:47.503Z,9.27
2023-02-19T05:46:19.492Z,9.27
2023-02-19T05:46:51.401Z,9.27
2023-02-19T05:47:07.354Z,9.27
2023-02-19T05:47:39.086Z,9.27
2023-02-19T05:48:23.553Z,9.27
2023-02-19T05:48:55.320Z,9.27
2023-02-19T05:49:26.963Z,9.27
2023-02-19T05:49:59.089Z,9.27
2023-02-19T05:50:31.748Z,9.27
2023-02-19T05:51:03.846Z,9.27
2023-02-19T05:51:35.123Z,9.27
2023-02-19T05:51:51.186Z,9.27
2023-02-19T05:52:35.024Z,9.27
2023-02-19T05:53:07.163Z,9.27
2023-02-19T05:53:39.044Z,9.27
2023-02-19T05:54:11.019Z,9.27
2023-02-19T05:54:43.020Z,9.27
2023-02-19T05:55:15.246Z,9.27
2023-02-19T05:55:46.991Z,9.27
2023-02-19T05:56:18.808Z,9.27
2023-02-19T05:56:50.848Z,9.27
2023-02-19T05:57:23.028Z,9.27
2023-02-19T05:57:54.996Z,9.22
2023-02-19T05:58:26.787Z,9.22
2023-02-19T05:58:58.832Z,9.22
2023-02-19T05:59:30.785Z,9.22
2023-02-19T06:00:05.702Z,9.22
2023-02-19T06:00:34.850Z,9.22
2023-02-19T06:00:51.301Z,9.22
2023-02-19T06:01:22.931Z,9.22
2023-02-19T06:01:38.672Z,9.22
2023-02-19T06:02:10.890Z,9.22
2023-02-19T06:02:42.674Z,9.22
2023-02-19T06:03:14.584Z,9.22
2023-02-19T06:03:46.755Z,9.22
2023-02-19T06:04:18.653Z,9.22
2023-02-19T06:04:50.510Z,9.22
2023-02-19T06:05:07.000Z,9.22
2023-02-19T06:05:38.571Z,9.22
2023-02-19T06:06:22.658Z,9.22
2023-02-19T06:06:54.646Z,9.22
2023-02-19T06:07:26.396Z,9.22
2023-02-19T06:07:58.496Z,9.22
2023-02-19T06:08:30.388Z,9.22
2023-02-19T06:09:03.185Z,9.22
2023-02-19T06:09:34.309Z,9.22
2023-02-19T06:09:50.518Z,9.22
2023-02-19T06:10:34.595Z,9.22
2023-02-19T06:11:06.372Z,9.22
2023-02-19T06:11:38.375Z,9.22
2023-02-19T06:12:10.227Z,9.22
2023-02-19T06:12:42.284Z,9.22
2023-02-19T06:13:15.417Z,9.22
2023-02-19T06:13:46.415Z,9.22
2023-02-19T06:14:18.054Z,9.22
2023-02-19T06:14:50.149Z,9.22
2023-02-19T06:15:22.911Z,9.22
2023-02-19T06:15:54.201Z,9.22
2023-02-19T06:16:26.316Z,9.22
2023-02-19T06:16:58.116Z,9.22
2023-02-19T06:17:29.935Z,9.22
2023-02-19T06:18:03.120Z,9.22
2023-02-19T06:18:33.820Z,9.22
2023-02-19T06:18:50.039Z,9.22
2023-02-19T06:19:22.192Z,9.22
2023-02-19T06:19:38.082Z,9.22
2023-02-19T06:20:10.222Z,9.22
2023-02-19T06:20:42.148Z,9.22
2023-02-19T06:21:13.878Z,9.22
2023-02-19T06:21:45.882Z,9.22
2023-02-19T06:22:17.927Z,9.11
2023-02-19T06:22:49.803Z,9.11
2023-02-19T06:23:22.135Z,9.11
2023-02-19T06:23:53.811Z,9.11
2023-02-19T06:24:25.848Z,9.11
2023-02-19T06:24:57.564Z,9.11
2023-02-19T06:25:30.044Z,9.11
2023-02-19T06:26:02.580Z,9.11
2023-02-19T06:26:33.633Z,9.11
2023-02-19T06:27:05.718Z,9.11
2023-02-19T06:27:37.594Z,9.11
2023-02-19T06:28:09.562Z,9.00
2023-02-19T06:28:41.761Z,9.00
2023-02-19T06:29:13.483Z,9.00
2023-02-19T06:29:45.377Z,9.00
2023-02-19T06:30:18.257Z,8.88
2023-02-19T06:30:51.478Z,8.88
2023-02-19T06:31:21.729Z,8.77
2023-02-19T06:31:37.723Z,8.77
2023-02-19T06:32:09.297Z,8.77
2023-02-19T06:32:53.591Z,8.77
2023-02-19T06:33:25.287Z,8.77
2023-02-19T06:33:57.202Z,8.77
2023-02-19T06:34:29.371Z,8.72
2023-02-19T06:35:02.615Z,8.72
2023-02-19T06:35:33.540Z,8.72
2023-02-19T06:36:05.589Z,8.72
2023-02-19T06:36:21.748Z,8.72
2023-02-19T06:37:06.323Z,8.72
2023-02-19T06:37:37.376Z,8.72
2023-02-19T06:38:09.253Z,8.77
2023-02-19T06:38:41.556Z,8.77
2023-02-19T06:39:13.509Z,8.77
2023-02-19T06:39:45.363Z,8.77
2023-02-19T06:40:17.465Z,8.88
2023-02-19T06:40:49.183Z,8.88
2023-02-19T06:41:05.657Z,8.88
2023-02-19T06:41:37.163Z,8.88
2023-02-19T06:42:21.454Z,8.88
2023-02-19T06:42:53.224Z,8.88
2023-02-19T06:43:25.073Z,8.88
2023-02-19T06:43:57.177Z,8.88
2023-02-19T06:44:29.190Z,8.88
2023-02-19T06:45:02.836Z,8.88
2023-02-19T06:45:32.986Z,8.88
2023-02-19T06:45:49.429Z,8.88
2023-02-19T06:46:33.377Z,8.88
2023-02-19T06:47:05.275Z,8.88
2023-02-19T06:47:36.886Z,8.88
2023-02-19T06:48:08.882Z,8.88
2023-02-19T06:48:41.246Z,9.00
2023-02-19T06:49:13.092Z,9.00
2023-02-19T06:49:44.785Z,9.00